sensor_id;sensor_type;location;lat;lon;timestamp;pressure;altitude;pressure_sealevel;temperature;humidity
38718;BME280;24468;52.128;9.278;2023-03-15T00:00:47;100039.91;;;2.94;100.00
38718;BME280;24468;52.128;9.278;2023-03-15T00:03:12;100038.41;;;2.81;100.00
38718;BME280;24468;52.128;9.278;2023-03-15T00:05:46;100045.38;;;2.88;100.00
38718;BME280;24468;52.128;9.278;2023-03-15T00:08:12;100051.38;;;2.96;100.00
38718;BME280;24468;52.128;9.278;2023-03-15T00:10:42;100049.56;;;2.98;100.00
38718;BME280;24468;52.128;9.278;2023-03-15T00:13:08;100040.00;;;2.89;100.00
38718;BME280;24468;52.128;9.278;2023-03-15T00:15:35;100045.38;;;2.88;100.00
38718;BME280;24468;52.128;9.278;2023-03-15T00:18:01;100047.03;;;2.92;100.00
38718;BME280;24468;52.128;9.278;2023-03-15T00:20:29;100047.97;;;2.91;100.00
38718;BME280;24468;52.128;9.278;2023-03-15T00:22:55;100059.59;;;2.87;100.00
38718;BME280;24468;52.128;9.278;2023-03-15T00:25:21;100055.81;;;2.97;100.00
38718;BME280;24468;52.128;9.278;2023-03-15T00:27:46;100056.78;;;2.93;100.00
38718;BME280;24468;52.128;9.278;2023-03-15T00:30:12;100056.97;;;2.84;100.00
38718;BME280;24468;52.128;9.278;2023-03-15T00:32:37;100045.69;;;2.71;100.00
38718;BME280;24468;52.128;9.278;2023-03-15T00:35:03;100050.78;;;2.83;100.00
38718;BME280;24468;52.128;9.278;2023-03-15T00:37:30;100059.56;;;2.88;100.00
38718;BME280;24468;52.128;9.278;2023-03-15T00:39:56;100056.13;;;2.82;100.00
38718;BME280;24468;52.128;9.278;2023-03-15T00:42:21;100055.09;;;2.89;100.00
38718;BME280;24468;52.128;9.278;2023-03-15T00:44:52;100066.56;;;2.94;100.00
38718;BME280;24468;52.128;9.278;2023-03-15T00:47:20;100070.81;;;3.01;100.00
38718;BME280;24468;52.128;9.278;2023-03-15T00:49:45;100069.88;;;3.05;100.00
38718;BME280;24468;52.128;9.278;2023-03-15T00:52:11;100071.53;;;3.11;100.00
38718;BME280;24468;52.128;9.278;2023-03-15T00:54:37;100080.59;;;3.01;100.00
38718;BME280;24468;52.128;9.278;2023-03-15T00:57:03;100060.66;;;2.78;100.00
38718;BME280;24468;52.128;9.278;2023-03-15T00:59:30;100058.56;;;2.94;100.00
38718;BME280;24468;52.128;9.278;2023-03-15T01:02:05;100067.38;;;2.96;100.00
38718;BME280;24468;52.128;9.278;2023-03-15T01:04:31;100068.28;;;2.95;100.00
38718;BME280;24468;52.128;9.278;2023-03-15T01:06:57;100058.56;;;2.94;100.00
38718;BME280;24468;52.128;9.278;2023-03-15T01:09:23;100071.69;;;3.03;100.00
38718;BME280;24468;52.128;9.278;2023-03-15T01:11:49;100071.75;;;2.99;100.00
38718;BME280;24468;52.128;9.278;2023-03-15T01:14:15;100082.19;;;3.11;100.00
38718;BME280;24468;52.128;9.278;2023-03-15T01:16:40;100070.66;;;3.10;100.00
38718;BME280;24468;52.128;9.278;2023-03-15T01:19:06;100055.63;;;3.06;100.00
38718;BME280;24468;52.128;9.278;2023-03-15T01:21:32;100072.16;;;3.22;100.00
38718;BME280;24468;52.128;9.278;2023-03-15T01:23:57;100064.56;;;3.04;100.00
38718;BME280;24468;52.128;9.278;2023-03-15T01:26:23;100074.53;;;3.34;100.00
38718;BME280;24468;52.128;9.278;2023-03-15T01:28:48;100067.81;;;3.18;100.00
38718;BME280;24468;52.128;9.278;2023-03-15T01:31:26;100073.31;;;3.10;100.00
38718;BME280;24468;52.128;9.278;2023-03-15T01:33:53;100079.28;;;3.22;100.00
38718;BME280;24468;52.128;9.278;2023-03-15T01:36:18;100082.25;;;3.48;100.00
38718;BME280;24468;52.128;9.278;2023-03-15T01:38:44;100080.88;;;3.29;100.00
38718;BME280;24468;52.128;9.278;2023-03-15T01:41:12;100076.41;;;3.31;100.00
38718;BME280;24468;52.128;9.278;2023-03-15T01:43:39;100074.59;;;3.33;100.00
38718;BME280;24468;52.128;9.278;2023-03-15T01:46:24;100081.00;;;3.24;100.00
38718;BME280;24468;52.128;9.278;2023-03-15T01:49:14;100082.03;;;3.17;100.00
38718;BME280;24468;52.128;9.278;2023-03-15T01:51:48;100085.19;;;3.34;100.00
38718;BME280;24468;52.128;9.278;2023-03-15T01:54:33;100096.78;;;3.35;100.00
38718;BME280;24468;52.128;9.278;2023-03-15T01:59:53;100109.88;;;3.46;100.00
38718;BME280;24468;52.128;9.278;2023-03-15T02:02:21;100114.59;;;3.33;100.00
38718;BME280;24468;52.128;9.278;2023-03-15T02:04:56;100112.63;;;3.41;100.00
38718;BME280;24468;52.128;9.278;2023-03-15T02:07:25;100110.44;;;3.59;100.00
38718;BME280;24468;52.128;9.278;2023-03-15T02:10:10;100114.44;;;3.41;100.00
38718;BME280;24468;52.128;9.278;2023-03-15T02:12:42;100115.53;;;3.29;100.00
38718;BME280;24468;52.128;9.278;2023-03-15T02:15:10;100110.22;;;3.29;100.00
38718;BME280;24468;52.128;9.278;2023-03-15T02:17:42;100114.38;;;3.42;100.00
38718;BME280;24468;52.128;9.278;2023-03-15T02:23:13;100120.06;;;3.27;100.00
38718;BME280;24468;52.128;9.278;2023-03-15T02:26:20;100118.72;;;3.04;100.00
38718;BME280;24468;52.128;9.278;2023-03-15T02:28:49;100113.28;;;3.10;100.00
38718;BME280;24468;52.128;9.278;2023-03-15T02:31:16;100118.84;;;2.98;100.00
38718;BME280;24468;52.128;9.278;2023-03-15T02:33:48;100119.00;;;2.92;100.00
38718;BME280;24468;52.128;9.278;2023-03-15T02:36:25;100130.44;;;2.96;100.00
38718;BME280;24468;52.128;9.278;2023-03-15T02:38:51;100120.50;;;3.05;100.00
38718;BME280;24468;52.128;9.278;2023-03-15T02:41:24;100136.16;;;2.77;100.00
38718;BME280;24468;52.128;9.278;2023-03-15T02:43:54;100130.56;;;2.91;100.00
38718;BME280;24468;52.128;9.278;2023-03-15T02:46:22;100127.09;;;2.86;100.00
38718;BME280;24468;52.128;9.278;2023-03-15T02:48:49;100145.09;;;2.73;100.00
38718;BME280;24468;52.128;9.278;2023-03-15T02:51:28;100143.97;;;2.86;100.00
38718;BME280;24468;52.128;9.278;2023-03-15T02:53:53;100157.28;;;2.88;100.00
38718;BME280;24468;52.128;9.278;2023-03-15T02:56:19;100156.22;;;2.95;100.00
38718;BME280;24468;52.128;9.278;2023-03-15T02:58:45;100153.88;;;2.78;100.00
38718;BME280;24468;52.128;9.278;2023-03-15T03:01:12;100164.28;;;2.90;100.00
38718;BME280;24468;52.128;9.278;2023-03-15T03:03:40;100169.41;;;3.01;100.00
38718;BME280;24468;52.128;9.278;2023-03-15T03:06:06;100171.63;;;2.79;100.00
38718;BME280;24468;52.128;9.278;2023-03-15T03:08:32;100178.03;;;2.69;100.00
38718;BME280;24468;52.128;9.278;2023-03-15T03:10:58;100190.19;;;2.85;100.00
38718;BME280;24468;52.128;9.278;2023-03-15T03:13:23;100195.19;;;3.02;100.00
38718;BME280;24468;52.128;9.278;2023-03-15T03:15:49;100193.63;;;3.36;100.00
38718;BME280;24468;52.128;9.278;2023-03-15T03:18:27;100202.91;;;3.16;100.00
38718;BME280;24468;52.128;9.278;2023-03-15T03:20:58;100211.56;;;3.27;100.00
38718;BME280;24468;52.128;9.278;2023-03-15T03:23:24;100212.56;;;3.22;100.00
38718;BME280;24468;52.128;9.278;2023-03-15T03:25:55;100221.38;;;3.25;100.00
38718;BME280;24468;52.128;9.278;2023-03-15T03:28:23;100216.97;;;3.23;100.00
38718;BME280;24468;52.128;9.278;2023-03-15T03:30:51;100231.84;;;3.36;100.00
38718;BME280;24468;52.128;9.278;2023-03-15T03:33:16;100221.78;;;3.05;100.00
38718;BME280;24468;52.128;9.278;2023-03-15T03:35:42;100242.09;;;3.11;100.00
38718;BME280;24468;52.128;9.278;2023-03-15T03:38:09;100243.91;;;3.09;100.00
38718;BME280;24468;52.128;9.278;2023-03-15T03:40:35;100237.66;;;3.11;100.00
38718;BME280;24468;52.128;9.278;2023-03-15T03:43:01;100252.22;;;2.92;100.00
38718;BME280;24468;52.128;9.278;2023-03-15T03:45:26;100245.31;;;3.30;100.00
38718;BME280;24468;52.128;9.278;2023-03-15T03:47:52;100251.50;;;3.30;100.00
38718;BME280;24468;52.128;9.278;2023-03-15T03:50:17;100250.41;;;3.41;100.00
38718;BME280;24468;52.128;9.278;2023-03-15T03:52:43;100241.72;;;3.31;100.00
38718;BME280;24468;52.128;9.278;2023-03-15T03:55:10;100254.22;;;3.27;100.00
38718;BME280;24468;52.128;9.278;2023-03-15T03:57:39;100246.06;;;2.88;100.00
38718;BME280;24468;52.128;9.278;2023-03-15T04:00:07;100258.53;;;2.88;100.00
38718;BME280;24468;52.128;9.278;2023-03-15T04:02:34;100259.69;;;2.70;100.00
38718;BME280;24468;52.128;9.278;2023-03-15T04:04:59;100278.53;;;3.10;100.00
38718;BME280;24468;52.128;9.278;2023-03-15T04:07:25;100283.09;;;3.04;100.00
38718;BME280;24468;52.128;9.278;2023-03-15T04:09:50;100280.56;;;2.96;100.00
38718;BME280;24468;52.128;9.278;2023-03-15T04:12:16;100290.09;;;3.09;100.00
38718;BME280;24468;52.128;9.278;2023-03-15T04:14:41;100288.59;;;2.93;100.00
38718;BME280;24468;52.128;9.278;2023-03-15T04:17:07;100287.78;;;2.91;100.00
38718;BME280;24468;52.128;9.278;2023-03-15T04:19:33;100289.75;;;3.29;100.00
38718;BME280;24468;52.128;9.278;2023-03-15T04:21:59;100289.34;;;3.03;100.00
38718;BME280;24468;52.128;9.278;2023-03-15T04:24:33;100302.03;;;2.87;100.00
38718;BME280;24468;52.128;9.278;2023-03-15T04:26:59;100307.72;;;3.18;100.00
38718;BME280;24468;52.128;9.278;2023-03-15T04:29:26;100304.16;;;3.18;100.00
38718;BME280;24468;52.128;9.278;2023-03-15T04:31:51;100307.75;;;3.15;100.00
38718;BME280;24468;52.128;9.278;2023-03-15T04:34:17;100297.50;;;2.94;100.00
38718;BME280;24468;52.128;9.278;2023-03-15T04:36:42;100318.81;;;2.94;100.00
38718;BME280;24468;52.128;9.278;2023-03-15T04:39:08;100320.09;;;3.21;100.00
38718;BME280;24468;52.128;9.278;2023-03-15T04:41:34;100309.09;;;2.91;100.00
38718;BME280;24468;52.128;9.278;2023-03-15T04:44:03;100318.41;;;3.18;100.00
38718;BME280;24468;52.128;9.278;2023-03-15T04:46:31;100321.88;;;3.20;100.00
38718;BME280;24468;52.128;9.278;2023-03-15T04:48:58;100319.28;;;3.17;100.00
38718;BME280;24468;52.128;9.278;2023-03-15T04:51:24;100320.16;;;3.18;100.00
38718;BME280;24468;52.128;9.278;2023-03-15T04:53:49;100318.41;;;3.17;100.00
38718;BME280;24468;52.128;9.278;2023-03-15T04:56:15;100322.75;;;3.24;100.00
38718;BME280;24468;52.128;9.278;2023-03-15T04:58:41;100328.19;;;3.16;100.00
38718;BME280;24468;52.128;9.278;2023-03-15T05:01:06;100329.94;;;3.17;100.00
38718;BME280;24468;52.128;9.278;2023-03-15T05:03:32;100339.53;;;3.27;100.00
38718;BME280;24468;52.128;9.278;2023-03-15T05:06:00;100333.41;;;3.24;100.00
38718;BME280;24468;52.128;9.278;2023-03-15T05:08:29;100344.50;;;3.49;100.00
38718;BME280;24468;52.128;9.278;2023-03-15T05:10:55;100344.03;;;3.25;100.00
38718;BME280;24468;52.128;9.278;2023-03-15T05:13:20;100353.19;;;3.10;100.00
38718;BME280;24468;52.128;9.278;2023-03-15T05:15:46;100355.97;;;3.03;100.00
38718;BME280;24468;52.128;9.278;2023-03-15T05:18:11;100352.47;;;2.99;100.00
38718;BME280;24468;52.128;9.278;2023-03-15T05:20:37;100369.16;;;3.10;100.00
38718;BME280;24468;52.128;9.278;2023-03-15T05:23:02;100356.88;;;3.02;100.00
38718;BME280;24468;52.128;9.278;2023-03-15T05:25:28;100370.97;;;3.60;100.00
38718;BME280;24468;52.128;9.278;2023-03-15T05:27:54;100374.97;;;3.34;100.00
38718;BME280;24468;52.128;9.278;2023-03-15T05:30:20;100361.75;;;3.29;100.00
38718;BME280;24468;52.128;9.278;2023-03-15T05:32:45;100363.78;;;3.14;100.00
38718;BME280;24468;52.128;9.278;2023-03-15T05:35:12;100370.88;;;3.15;100.00
38718;BME280;24468;52.128;9.278;2023-03-15T05:37:38;100378.44;;;3.39;100.00
38718;BME280;24468;52.128;9.278;2023-03-15T05:40:04;100384.50;;;3.49;100.00
38718;BME280;24468;52.128;9.278;2023-03-15T05:42:33;100385.25;;;3.55;100.00
38718;BME280;24468;52.128;9.278;2023-03-15T05:44:59;100393.06;;;3.66;100.00
38718;BME280;24468;52.128;9.278;2023-03-15T05:47:24;100393.06;;;3.66;100.00
38718;BME280;24468;52.128;9.278;2023-03-15T05:49:50;100399.81;;;3.86;100.00
38718;BME280;24468;52.128;9.278;2023-03-15T05:52:16;100404.97;;;3.48;100.00
38718;BME280;24468;52.128;9.278;2023-03-15T05:54:42;100415.88;;;3.84;100.00
38718;BME280;24468;52.128;9.278;2023-03-15T05:57:08;100417.00;;;4.16;100.00
38718;BME280;24468;52.128;9.278;2023-03-15T05:59:33;100425.50;;;3.91;100.00
38718;BME280;24468;52.128;9.278;2023-03-15T06:01:59;100422.69;;;4.00;100.00
38718;BME280;24468;52.128;9.278;2023-03-15T06:04:25;100432.19;;;4.14;100.00
38718;BME280;24468;52.128;9.278;2023-03-15T06:06:51;100440.31;;;4.08;100.00
38718;BME280;24468;52.128;9.278;2023-03-15T06:09:17;100439.81;;;3.87;100.00
38718;BME280;24468;52.128;9.278;2023-03-15T06:11:42;100452.19;;;3.93;100.00
38718;BME280;24468;52.128;9.278;2023-03-15T06:14:08;100450.63;;;3.79;100.00
38718;BME280;24468;52.128;9.278;2023-03-15T06:16:33;100455.41;;;3.61;100.00
38718;BME280;24468;52.128;9.278;2023-03-15T06:18:59;100452.44;;;3.77;100.00
38718;BME280;24468;52.128;9.278;2023-03-15T06:21:25;100455.78;;;3.90;100.00
38718;BME280;24468;52.128;9.278;2023-03-15T06:23:50;100467.69;;;3.71;100.00
38718;BME280;24468;52.128;9.278;2023-03-15T06:26:16;100470.66;;;4.04;100.00
38718;BME280;24468;52.128;9.278;2023-03-15T06:28:43;100472.84;;;3.80;100.00
38718;BME280;24468;52.128;9.278;2023-03-15T06:31:12;100471.41;;;4.10;100.00
38718;BME280;24468;52.128;9.278;2023-03-15T06:33:38;100478.56;;;4.08;100.00
38718;BME280;24468;52.128;9.278;2023-03-15T06:36:05;100474.34;;;3.95;100.00
38718;BME280;24468;52.128;9.278;2023-03-15T06:38:31;100487.25;;;4.19;100.00
38718;BME280;24468;52.128;9.278;2023-03-15T06:40:57;100494.75;;;4.47;100.00
38718;BME280;24468;52.128;9.278;2023-03-15T06:43:26;100494.41;;;4.64;100.00
38718;BME280;24468;52.128;9.278;2023-03-15T06:45:51;100495.06;;;4.30;100.00
38718;BME280;24468;52.128;9.278;2023-03-15T06:48:18;100509.88;;;4.46;100.00
38718;BME280;24468;52.128;9.278;2023-03-15T06:50:44;100502.66;;;4.52;100.00
38718;BME280;24468;52.128;9.278;2023-03-15T06:53:09;100499.84;;;4.13;100.00
38718;BME280;24468;52.128;9.278;2023-03-15T06:55:35;100501.56;;;4.62;100.00
38718;BME280;24468;52.128;9.278;2023-03-15T06:58:00;100505.88;;;4.24;100.00
38718;BME280;24468;52.128;9.278;2023-03-15T07:00:26;100522.19;;;4.09;100.00
38718;BME280;24468;52.128;9.278;2023-03-15T07:02:52;100522.94;;;4.17;100.00
38718;BME280;24468;52.128;9.278;2023-03-15T07:05:17;100532.28;;;4.39;100.00
38718;BME280;24468;52.128;9.278;2023-03-15T07:07:43;100536.09;;;4.71;100.00
38718;BME280;24468;52.128;9.278;2023-03-15T07:10:09;100543.03;;;4.36;100.00
38718;BME280;24468;52.128;9.278;2023-03-15T07:12:35;100537.03;;;4.22;100.00
38718;BME280;24468;52.128;9.278;2023-03-15T07:15:01;100547.00;;;4.14;100.00
38718;BME280;24468;52.128;9.278;2023-03-15T07:17:26;100544.47;;;4.06;100.00
38718;BME280;24468;52.128;9.278;2023-03-15T07:19:52;100556.28;;;3.91;100.00
38718;BME280;24468;52.128;9.278;2023-03-15T07:22:17;100561.56;;;4.45;100.00
38718;BME280;24468;52.128;9.278;2023-03-15T07:24:43;100558.56;;;4.14;100.00
38718;BME280;24468;52.128;9.278;2023-03-15T07:27:12;100567.56;;;4.57;100.00
38718;BME280;24468;52.128;9.278;2023-03-15T07:29:37;100566.13;;;4.84;100.00
38718;BME280;24468;52.128;9.278;2023-03-15T07:32:03;100572.09;;;4.53;100.00
38718;BME280;24468;52.128;9.278;2023-03-15T07:34:29;100581.66;;;4.65;100.00
38718;BME280;24468;52.128;9.278;2023-03-15T07:36:54;100578.72;;;4.32;100.00
38718;BME280;24468;52.128;9.278;2023-03-15T07:39:20;100576.28;;;4.18;100.00
38718;BME280;24468;52.128;9.278;2023-03-15T07:41:46;100584.59;;;4.53;100.00
38718;BME280;24468;52.128;9.278;2023-03-15T07:44:11;100586.00;;;4.71;100.00
38718;BME280;24468;52.128;9.278;2023-03-15T07:46:37;100576.94;;;5.21;100.00
38718;BME280;24468;52.128;9.278;2023-03-15T07:49:03;100591.78;;;4.93;100.00
38718;BME280;24468;52.128;9.278;2023-03-15T07:51:28;100583.94;;;4.85;100.00
38718;BME280;24468;52.128;9.278;2023-03-15T07:53:54;100586.13;;;4.63;100.00
38718;BME280;24468;52.128;9.278;2023-03-15T07:56:19;100600.16;;;4.77;100.00
38718;BME280;24468;52.128;9.278;2023-03-15T07:58:45;100604.94;;;4.09;100.00
38718;BME280;24468;52.128;9.278;2023-03-15T08:01:11;100605.94;;;4.53;100.00
38718;BME280;24468;52.128;9.278;2023-03-15T08:03:36;100610.59;;;4.41;100.00
38718;BME280;24468;52.128;9.278;2023-03-15T08:06:02;100614.72;;;4.59;100.00
38718;BME280;24468;52.128;9.278;2023-03-15T08:08:27;100612.97;;;4.58;100.00
38718;BME280;24468;52.128;9.278;2023-03-15T08:10:53;100617.81;;;4.84;100.00
38718;BME280;24468;52.128;9.278;2023-03-15T08:13:20;100623.66;;;4.58;100.00
38718;BME280;24468;52.128;9.278;2023-03-15T08:15:46;100630.97;;;4.94;100.00
38718;BME280;24468;52.128;9.278;2023-03-15T08:18:12;100617.25;;;4.67;100.00
38718;BME280;24468;52.128;9.278;2023-03-15T08:20:38;100626.88;;;4.76;100.00
38718;BME280;24468;52.128;9.278;2023-03-15T08:23:03;100634.81;;;4.80;100.00
38718;BME280;24468;52.128;9.278;2023-03-15T08:25:29;100636.84;;;4.67;100.00
38718;BME280;24468;52.128;9.278;2023-03-15T08:27:56;100648.88;;;4.42;100.00
38718;BME280;24468;52.128;9.278;2023-03-15T08:30:22;100649.81;;;4.89;100.00
38718;BME280;24468;52.128;9.278;2023-03-15T08:32:49;100651.00;;;4.71;100.00
38718;BME280;24468;52.128;9.278;2023-03-15T08:35:18;100649.25;;;5.15;100.00
38718;BME280;24468;52.128;9.278;2023-03-15T08:37:44;100654.88;;;5.03;100.00
38718;BME280;24468;52.128;9.278;2023-03-15T08:40:14;100673.13;;;5.26;100.00
38718;BME280;24468;52.128;9.278;2023-03-15T08:42:40;100666.94;;;5.24;100.00
38718;BME280;24468;52.128;9.278;2023-03-15T08:45:07;100670.81;;;5.51;100.00
38718;BME280;24468;52.128;9.278;2023-03-15T08:47:34;100678.31;;;5.35;100.00
38718;BME280;24468;52.128;9.278;2023-03-15T08:50:08;100683.00;;;5.64;100.00
38718;BME280;24468;52.128;9.278;2023-03-15T08:52:35;100679.59;;;5.16;100.00
38718;BME280;24468;52.128;9.278;2023-03-15T08:55:00;100689.91;;;5.34;100.00
38718;BME280;24468;52.128;9.278;2023-03-15T08:57:26;100685.38;;;5.78;100.00
38718;BME280;24468;52.128;9.278;2023-03-15T08:59:54;100689.13;;;6.47;100.00
38718;BME280;24468;52.128;9.278;2023-03-15T09:02:20;100691.16;;;6.00;100.00
38718;BME280;24468;52.128;9.278;2023-03-15T09:04:47;100701.56;;;5.73;100.00
38718;BME280;24468;52.128;9.278;2023-03-15T09:07:13;100715.41;;;5.52;100.00
38718;BME280;24468;52.128;9.278;2023-03-15T09:09:40;100713.25;;;5.69;100.00
38718;BME280;24468;52.128;9.278;2023-03-15T09:12:06;100713.25;;;5.69;100.00
38718;BME280;24468;52.128;9.278;2023-03-15T09:14:32;100722.50;;;5.53;100.00
38718;BME280;24468;52.128;9.278;2023-03-15T09:16:57;100719.91;;;5.05;100.00
38718;BME280;24468;52.128;9.278;2023-03-15T09:19:23;100720.09;;;5.83;100.00
38718;BME280;24468;52.128;9.278;2023-03-15T09:21:48;100721.13;;;5.32;100.00
38718;BME280;24468;52.128;9.278;2023-03-15T09:24:14;100731.41;;;5.55;100.00
38718;BME280;24468;52.128;9.278;2023-03-15T09:26:39;100725.31;;;5.89;100.00
38718;BME280;24468;52.128;9.278;2023-03-15T09:29:05;100734.63;;;5.71;100.00
38718;BME280;24468;52.128;9.278;2023-03-15T09:31:34;100738.22;;;5.70;100.00
38718;BME280;24468;52.128;9.278;2023-03-15T09:33:59;100733.22;;;5.95;100.00
38718;BME280;24468;52.128;9.278;2023-03-15T09:36:25;100740.31;;;5.97;100.00
38718;BME280;24468;52.128;9.278;2023-03-15T09:38:50;100733.22;;;5.95;100.00
38718;BME280;24468;52.128;9.278;2023-03-15T09:41:43;100741.94;;;6.06;100.00
38718;BME280;24468;52.128;9.278;2023-03-15T09:50:12;100744.38;;;6.15;100.00
38718;BME280;24468;52.128;9.278;2023-03-15T09:52:48;100728.41;;;6.84;100.00
38718;BME280;24468;52.128;9.278;2023-03-15T09:55:23;100726.25;;;6.98;90.93
38718;BME280;24468;52.128;9.278;2023-03-15T09:57:59;100730.34;;;7.13;92.86
38718;BME280;24468;52.128;9.278;2023-03-15T10:03:03;100740.34;;;6.36;100.00
38718;BME280;24468;52.128;9.278;2023-03-15T10:05:43;100738.13;;;6.52;100.00
38718;BME280;24468;52.128;9.278;2023-03-15T10:08:18;100739.88;;;7.23;100.00
38718;BME280;24468;52.128;9.278;2023-03-15T10:11:03;100748.75;;;6.93;100.00
38718;BME280;24468;52.128;9.278;2023-03-15T10:16:46;100767.22;;;5.48;100.00
38718;BME280;24468;52.128;9.278;2023-03-15T10:27:56;100741.03;;;6.44;97.38
38718;BME280;24468;52.128;9.278;2023-03-15T10:30:30;100751.19;;;6.67;89.35
38718;BME280;24468;52.128;9.278;2023-03-15T10:35:48;100754.00;;;6.61;79.27
38718;BME280;24468;52.128;9.278;2023-03-15T10:38:16;100744.59;;;6.45;81.76
38718;BME280;24468;52.128;9.278;2023-03-15T10:41:02;100751.25;;;6.27;84.29
38718;BME280;24468;52.128;9.278;2023-03-15T10:43:32;100747.59;;;7.03;85.86
38718;BME280;24468;52.128;9.278;2023-03-15T10:46:20;100738.34;;;6.80;87.74
38718;BME280;24468;52.128;9.278;2023-03-15T10:48:57;100758.06;;;6.42;95.39
38718;BME280;24468;52.128;9.278;2023-03-15T10:51:40;100754.81;;;6.65;90.95
38718;BME280;24468;52.128;9.278;2023-03-15T10:54:19;100741.06;;;6.79;86.62
38718;BME280;24468;52.128;9.278;2023-03-15T10:59:24;100744.06;;;7.65;81.96
38718;BME280;24468;52.128;9.278;2023-03-15T11:01:53;100757.50;;;7.94;74.92
38718;BME280;24468;52.128;9.278;2023-03-15T11:04:31;100755.47;;;7.73;71.69
38718;BME280;24468;52.128;9.278;2023-03-15T11:09:24;100758.84;;;7.16;70.27
38718;BME280;24468;52.128;9.278;2023-03-15T11:12:06;100749.06;;;7.46;73.44
38718;BME280;24468;52.128;9.278;2023-03-15T11:14:46;100761.13;;;7.31;78.44
38718;BME280;24468;52.128;9.278;2023-03-15T11:17:31;100763.72;;;7.96;76.76
38718;BME280;24468;52.128;9.278;2023-03-15T11:20:30;100766.84;;;7.81;84.76
38718;BME280;24468;52.128;9.278;2023-03-15T11:23:27;100763.88;;;7.61;80.12
38718;BME280;24468;52.128;9.278;2023-03-15T11:25:54;100770.72;;;8.02;80.44
38718;BME280;24468;52.128;9.278;2023-03-15T11:28:27;100770.28;;;8.17;73.65
38718;BME280;24468;52.128;9.278;2023-03-15T11:30:57;100763.63;;;8.29;76.39
38718;BME280;24468;52.128;9.278;2023-03-15T11:34:02;100767.66;;;8.72;75.65
38718;BME280;24468;52.128;9.278;2023-03-15T11:36:32;100775.28;;;8.28;66.13
38718;BME280;24468;52.128;9.278;2023-03-15T11:39:02;100772.28;;;8.39;68.87
38718;BME280;24468;52.128;9.278;2023-03-15T11:41:38;100770.84;;;9.10;72.63
38718;BME280;24468;52.128;9.278;2023-03-15T11:44:32;100781.28;;;8.36;69.72
38718;BME280;24468;52.128;9.278;2023-03-15T11:47:31;100791.34;;;8.01;69.84
38718;BME280;24468;52.128;9.278;2023-03-15T11:49:59;100793.97;;;7.73;68.53
38718;BME280;24468;52.128;9.278;2023-03-15T11:52:27;100792.53;;;8.21;66.33
38718;BME280;24468;52.128;9.278;2023-03-15T11:54:59;100795.06;;;8.55;63.80
38718;BME280;24468;52.128;9.278;2023-03-15T11:59:55;100796.66;;;7.73;59.83
38718;BME280;24468;52.128;9.278;2023-03-15T12:04:49;100806.81;;;7.93;57.79
38718;BME280;24468;52.128;9.278;2023-03-15T12:12:45;100784.72;;;8.71;58.06
38718;BME280;24468;52.128;9.278;2023-03-15T12:17:53;100794.44;;;9.02;56.31
38718;BME280;24468;52.128;9.278;2023-03-15T12:20:39;100793.19;;;9.39;56.88
38718;BME280;24468;52.128;9.278;2023-03-15T12:28:36;100801.88;;;9.20;54.30
38718;BME280;24468;52.128;9.278;2023-03-15T12:31:05;100819.88;;;8.35;53.44
38718;BME280;24468;52.128;9.278;2023-03-15T12:33:32;100815.47;;;8.03;55.72
38718;BME280;24468;52.128;9.278;2023-03-15T12:36:28;100818.47;;;7.61;54.09
38718;BME280;24468;52.128;9.278;2023-03-15T12:41:46;100802.34;;;7.92;53.94
38718;BME280;24468;52.128;9.278;2023-03-15T12:47:02;100798.75;;;8.81;55.68
38718;BME280;24468;52.128;9.278;2023-03-15T12:49:33;100810.09;;;8.03;55.18
38718;BME280;24468;52.128;9.278;2023-03-15T12:54:50;100827.16;;;7.71;53.58
38718;BME280;24468;52.128;9.278;2023-03-15T12:57:29;100879.41;;;6.47;69.83
38718;BME280;24468;52.128;9.278;2023-03-15T13:03:01;100914.25;;;4.41;100.00
38718;BME280;24468;52.128;9.278;2023-03-15T13:05:51;100891.78;;;4.54;100.00
38718;BME280;24468;52.128;9.278;2023-03-15T13:08:26;100944.88;;;4.11;100.00
38718;BME280;24468;52.128;9.278;2023-03-15T13:22:27;100956.88;;;3.70;100.00
38718;BME280;24468;52.128;9.278;2023-03-15T13:25:23;100962.84;;;3.96;100.00
38718;BME280;24468;52.128;9.278;2023-03-15T13:27:58;100963.34;;;3.44;100.00
38718;BME280;24468;52.128;9.278;2023-03-15T13:30:40;100953.53;;;3.46;100.00
38718;BME280;24468;52.128;9.278;2023-03-15T13:33:28;100928.41;;;3.73;100.00
38718;BME280;24468;52.128;9.278;2023-03-15T13:36:15;100932.00;;;3.68;100.00
38718;BME280;24468;52.128;9.278;2023-03-15T13:38:49;100937.53;;;4.30;100.00
38718;BME280;24468;52.128;9.278;2023-03-15T13:41:23;100935.56;;;4.44;100.00
38718;BME280;24468;52.128;9.278;2023-03-15T13:43:52;100940.06;;;4.40;100.00
38718;BME280;24468;52.128;9.278;2023-03-15T13:46:22;100946.88;;;4.64;100.00
38718;BME280;24468;52.128;9.278;2023-03-15T13:48:48;100934.00;;;4.93;100.00
38718;BME280;24468;52.128;9.278;2023-03-15T13:51:34;100938.63;;;4.83;100.00
38718;BME280;24468;52.128;9.278;2023-03-15T14:00:04;100919.97;;;5.84;100.00
38718;BME280;24468;52.128;9.278;2023-03-15T14:05:11;100930.75;;;5.80;100.00
38718;BME280;24468;52.128;9.278;2023-03-15T14:07:42;100940.03;;;6.11;100.00
38718;BME280;24468;52.128;9.278;2023-03-15T14:12:46;100926.22;;;7.11;100.00
38718;BME280;24468;52.128;9.278;2023-03-15T14:15:35;100924.72;;;6.17;100.00
38718;BME280;24468;52.128;9.278;2023-03-15T14:20:43;100937.84;;;6.31;100.00
38718;BME280;24468;52.128;9.278;2023-03-15T14:23:14;100937.78;;;6.34;100.00
38718;BME280;24468;52.128;9.278;2023-03-15T14:25:40;100932.50;;;6.72;100.00
38718;BME280;24468;52.128;9.278;2023-03-15T14:28:13;100935.47;;;7.35;100.00
38718;BME280;24468;52.128;9.278;2023-03-15T14:30:41;100926.47;;;7.01;100.00
38718;BME280;24468;52.128;9.278;2023-03-15T14:33:31;100925.13;;;6.81;100.00